Chart 1
 

(A maximum of 50 rows are displayed here. Use "Export Data" to see all rows in the date range.)
Date Collected Temp WindChill
(Celcius)
WindSpeed
(km/hr)
Gust
(km/hr)
Wind Direction
(degrees)
2021-09-29 04:00 18.3 13.8 10 22 19
2021-09-29 03:00 18.3 15.0 8 19 28
2021-09-29 02:00 18.5 15.1 8 22 13
2021-09-29 01:00 18.8 15.3 8 21 15
2021-09-29 00:00 18.8 15.4 8 22 355
2021-09-28 23:00 17.5 15.7 5 20 19
2021-09-28 22:00 17.7 15.6 6 13 20
2021-09-28 21:00 18.8 16.4 7 16 27
2021-09-28 20:00 18.8 15.7 8 20 353
2021-09-28 19:00 18.8 16.7 6 14 12
2021-09-28 18:00 18.8 15.4 8 23 6
2021-09-28 17:00 18.2 16.0 6 12 41
2021-09-28 16:00 17.8 17.8 2 5 17
2021-09-28 15:00 18.2 17.1 4 10 33
2021-09-28 14:00 18.2 17.5 3 11 331
2021-09-28 13:00 18.9 16.5 6 19 341
2021-09-28 12:00 19.4 16.6 7 15 2
2021-09-28 11:00 19.1 16.9 6 13 20
2021-09-28 10:00 19.4 16.6 7 16 24
2021-09-28 09:00 19.3 16.9 6 15 28
2021-09-28 08:00 18.7 16.6 6 15 24
2021-09-28 07:00 18.5 16.3 6 18 24
2021-09-28 06:00 18.4 16.9 5 11 30
2021-09-28 05:00 18.4 17.3 4 11 40
2021-09-28 04:00 18.4 17.1 5 11 35
2021-09-28 03:00 18.5 17.1 5 11 47
2021-09-28 02:00 18.7 18.0 3 8 24
2021-09-28 01:00 18.7 17.2 5 12 24
2021-09-28 00:00 18.8 17.7 4 12 16
2021-09-27 23:00 18.8 16.9 5 15 360
2021-09-27 22:00 18.3 17.3 4 12 9
2021-09-27 21:00 18.8 17.9 4 11 10
2021-09-27 20:00 18.7 16.9 5 12 2
2021-09-27 19:00 18.6 17.5 4 12 355
2021-09-27 18:00 18.6 17.9 4 11 20
2021-09-27 17:00 18.7 18.0 3 10 4
2021-09-27 16:00 18.8 17.8 4 13 22
2021-09-27 15:00 18.9 17.6 5 11 23
2021-09-27 14:00 18.9 17.9 4 11 34
2021-09-27 13:00 19.3 18.2 4 12 359
2021-09-27 12:00 19.4 17.4 6 15 28
2021-09-27 11:00 19.3 17.9 5 11 10
2021-09-27 10:00 18.9 17.7 4 10 29
2021-09-27 09:00 19.5 17.5 6 17 16
2021-09-27 08:00 19.0 17.6 5 13 38
2021-09-27 07:00 20.0 17.9 6 18 31
2021-09-27 06:00 20.2 18.0 6 18 19
2021-09-27 05:00 20.0 17.9 6 16 27
2021-09-27 04:00 20.2 17.8 7 15 24
2021-09-27 03:00 20.0 17.7 7 16 23